Time;durP1;ratioP1;P1;durP2;ratioP2;P2;SDS_P1;SDS_P2;PMS_P1;PMS_P2;Temp;Humidity;BMP_temperature;BMP_pressure;BME280_temperature;BME280_humidity;BME280_pressure;Samples;Min_cycle;Max_cycle;Signal;HPM_P1;HPM_P2
2022/03/17 00:00:26;;;;;;;18.58;11.80;;;;;;;3.59;67.05;100853.38;4515622;31;33627;-71
2022/03/17 00:02:53;;;;;;;22.48;12.85;;;;;;;3.90;65.32;100841.78;4516131;31;33272;-69
2022/03/17 00:05:21;;;;;;;19.12;11.98;;;;;;;3.38;66.40;100847.78;4516029;31;33726;-69
2022/03/17 00:07:48;;;;;;;18.62;12.48;;;;;;;3.53;66.76;100855.94;4515670;31;34173;-71
2022/03/17 00:10:16;;;;;;;17.37;10.77;;;;;;;3.79;65.80;100847.56;4515635;31;34765;-70
2022/03/17 00:12:45;;;;;;;19.12;10.95;;;;;;;4.29;64.38;100852.38;4515959;31;34388;-73
2022/03/17 00:15:14;;;;;;;16.75;10.32;;;;;;;3.77;65.44;100861.16;4514420;31;34655;-73
2022/03/17 00:17:41;;;;;;;15.63;9.80;;;;;;;4.22;64.74;100859.50;4515625;31;34135;-71
2022/03/17 00:20:10;;;;;;;16.48;10.77;;;;;;;3.55;66.70;100865.47;4515600;31;33978;-70
2022/03/17 00:22:38;;;;;;;16.60;10.60;;;;;;;3.98;65.62;100865.91;4515692;31;33653;-68
2022/03/17 00:25:07;;;;;;;16.15;10.57;;;;;;;4.15;65.81;100861.25;4515981;31;33965;-72
2022/03/17 00:27:35;;;;;;;15.95;10.30;;;;;;;4.09;65.75;100870.03;4515324;31;34310;-68
2022/03/17 00:30:05;;;;;;;17.85;10.55;;;;;;;4.21;65.00;100867.75;4515571;31;33738;-69
2022/03/17 00:32:33;;;;;;;17.20;10.57;;;;;;;3.55;67.19;100865.47;4515762;31;33437;-71
2022/03/17 00:37:48;;;;;;;18.48;11.90;;;;;;;3.26;66.86;100866.94;4515199;31;35105;-69
2022/03/17 00:40:15;;;;;;;18.45;11.57;;;;;;;1.78;73.18;100874.25;4515172;31;33874;-72
2022/03/17 00:42:44;;;;;;;19.30;12.43;;;;;;;2.42;70.59;100868.31;4515614;31;33671;-70
2022/03/17 00:45:12;;;;;;;18.85;12.35;;;;;;;2.32;70.56;100871.13;4515303;31;34036;-73
2022/03/17 00:47:40;;;;;;;19.77;12.43;;;;;;;2.58;69.74;100870.94;4514874;31;35015;-72
2022/03/17 00:50:09;;;;;;;19.35;12.65;;;;;;;2.85;68.63;100869.75;4513932;31;34125;-71
2022/03/17 00:52:37;;;;;;;19.92;12.25;;;;;;;2.77;68.30;100863.56;4515491;31;33114;-70
2022/03/17 00:55:06;;;;;;;5.70;4.10;;;;;;;3.39;66.86;100865.53;4516413;31;34702;-73
2022/03/17 00:57:36;;;;;;;17.80;11.75;;;;;;;3.10;67.29;100863.50;4517631;31;34980;-72
2022/03/17 01:00:05;;;;;;;18.00;11.43;;;;;;;3.23;67.57;100866.44;4517250;31;34803;-73
2022/03/17 01:02:33;;;;;;;20.10;11.23;;;;;;;2.98;68.00;100876.41;4517053;31;33112;-72
2022/03/17 01:05:01;;;;;;;10.43;3.58;;;;;;;3.02;67.94;100880.41;4517331;31;33935;-72
2022/03/17 01:07:29;;;;;;;16.90;11.32;;;;;;;3.43;66.88;100880.28;4517356;31;34821;-71
2022/03/17 01:09:56;;;;;;;19.87;11.23;;;;;;;3.32;67.22;100883.34;4517311;31;33741;-72
2022/03/17 01:12:23;;;;;;;17.05;11.32;;;;;;;3.18;67.29;100883.06;4517034;31;33098;-71
2022/03/17 01:14:51;;;;;;;18.20;11.20;;;;;;;3.19;67.24;100882.03;4517137;31;33803;-72
2022/03/17 01:17:18;;;;;;;18.42;11.02;;;;;;;3.22;67.12;100881.72;4517094;31;34176;-72
2022/03/17 01:19:46;;;;;;;17.25;11.05;;;;;;;2.66;68.00;100887.03;4517051;31;34574;-71
2022/03/17 01:22:14;;;;;;;11.90;7.70;;;;;;;3.29;65.81;100884.53;4517258;31;34596;-74
2022/03/17 01:24:41;;;;;;;19.40;11.68;;;;;;;3.25;65.68;100886.72;4517186;31;34322;-74
2022/03/17 01:27:09;;;;;;;15.43;10.85;;;;;;;2.31;69.72;100892.72;4516881;31;34304;-73
2022/03/17 01:29:40;;;;;;;17.23;12.07;;;;;;;3.03;66.40;100890.16;4516831;31;35141;-70
2022/03/17 01:32:08;;;;;;;18.30;11.75;;;;;;;2.97;66.56;100877.44;4516941;31;34424;-70
2022/03/17 01:34:35;;;;;;;18.30;11.80;;;;;;;2.86;67.52;100882.13;4517326;31;34456;-71
2022/03/17 01:37:03;;;;;;;5.95;4.22;;;;;;;3.33;65.94;100882.34;4517089;31;34778;-71
2022/03/17 01:39:31;;;;;;;18.52;11.65;;;;;;;3.42;65.54;100884.00;4516609;31;34449;-73
2022/03/17 01:42:03;;;;;;;19.37;12.30;;;;;;;3.18;66.24;100876.88;4517010;31;34228;-74
2022/03/17 01:44:30;;;;;;;18.27;11.88;;;;;;;3.04;66.44;100883.75;4516776;31;34855;-72
2022/03/17 01:49:45;;;;;;;20.35;12.82;;;;;;;2.95;66.75;100885.63;4515772;31;33697;-71
2022/03/17 01:52:12;;;;;;;18.48;11.85;;;;;;;3.18;66.34;100882.25;4516825;31;33169;-73
2022/03/17 01:54:41;;;;;;;17.87;11.35;;;;;;;3.01;66.47;100876.06;4517148;31;33858;-72
2022/03/17 01:57:09;;;;;;;21.15;12.37;;;;;;;3.11;66.22;100878.53;4515237;31;33956;-72
2022/03/17 01:59:38;;;;;;;20.65;12.75;;;;;;;2.98;67.03;100887.97;4515606;31;34443;-71
2022/03/17 02:02:10;;;;;;;1.65;1.33;;;;;;;2.91;66.65;100883.47;4515687;31;33377;-72
2022/03/17 02:04:41;;;;;;;2.05;1.85;;;;;;;3.64;64.62;100885.06;4516632;31;33714;-73
2022/03/17 02:07:09;;;;;;;20.25;13.32;;;;;;;2.45;68.32;100892.88;4516732;31;34291;-70
2022/03/17 02:09:37;;;;;;;20.17;12.68;;;;;;;2.74;66.79;100888.84;4515202;31;34790;-71
2022/03/17 02:15:01;;;;;;;2.28;1.42;;;;;;;2.41;67.94;100906.78;4516757;31;33913;-73
2022/03/17 02:17:31;;;;;;;22.58;13.50;;;;;;;2.97;66.64;100904.22;4516632;31;35148;-72
2022/03/17 02:20:00;;;;;;;21.58;13.32;;;;;;;2.83;67.17;100903.06;4517243;31;33903;-69
2022/03/17 02:22:29;;;;;;;20.55;13.82;;;;;;;2.61;67.91;100913.50;4516508;31;33504;-73
2022/03/17 02:27:45;;;;;;;21.87;13.20;;;;;;;3.47;65.42;100905.75;4516521;31;33861;-69
2022/03/17 02:30:18;;;;;;;2.85;1.75;;;;;;;2.80;66.72;100914.97;4516725;31;33994;-73
2022/03/17 02:32:47;;;;;;;23.90;14.10;;;;;;;2.81;67.84;100899.75;4515738;31;32998;-73
2022/03/17 02:35:18;;;;;;;2.00;1.85;;;;;;;2.65;68.91;100912.13;4516449;31;33630;-69
2022/03/17 02:37:46;;;;;;;23.75;14.85;;;;;;;3.26;66.50;100911.69;4516272;31;34966;-73
2022/03/17 02:40:13;;;;;;;23.52;15.15;;;;;;;1.47;73.56;100922.13;4516363;31;33991;-69
2022/03/17 02:42:41;;;;;;;24.25;14.30;;;;;;;1.82;71.79;100918.41;4516299;31;33473;-73
2022/03/17 02:45:12;;;;;;;23.90;14.95;;;;;;;2.49;69.48;100920.19;4516476;31;34546;-72
2022/03/17 02:47:41;;;;;;;25.33;15.18;;;;;;;2.82;67.56;100926.34;4516140;31;34053;-73
2022/03/17 02:50:12;;;;;;;25.52;15.20;;;;;;;2.43;68.51;100924.34;4515314;31;34565;-72
2022/03/17 02:52:40;;;;;;;26.83;16.15;;;;;;;2.74;67.30;100926.34;4516528;31;34375;-74
2022/03/17 02:55:11;;;;;;;28.55;16.05;;;;;;;2.22;69.10;100935.53;4516374;31;33864;-72
2022/03/17 02:57:39;;;;;;;30.65;16.70;;;;;;;2.36;68.67;100941.28;4515995;31;35048;-69
2022/03/17 03:00:09;;;;;;;25.77;15.07;;;;;;;2.49;67.79;100941.63;4500004;31;33981;-70
2022/03/17 03:02:37;;;;;;;31.23;17.00;;;;;;;2.29;68.77;100942.91;4500410;31;33818;-69
2022/03/17 03:05:05;;;;;;;25.10;15.48;;;;;;;2.76;66.85;100947.62;4500584;31;33998;-73
2022/03/17 03:07:34;;;;;;;22.33;14.27;;;;;;;3.16;65.60;100949.44;4500186;31;34102;-72
2022/03/17 03:10:02;;;;;;;22.90;14.48;;;;;;;3.12;66.09;100952.63;4500192;31;34110;-71
2022/03/17 03:12:30;;;;;;;23.25;14.30;;;;;;;3.11;66.02;100962.53;4500747;31;33574;-72
2022/03/17 03:14:57;;;;;;;25.55;14.98;;;;;;;3.15;65.26;100958.47;4500480;31;33396;-70
2022/03/17 03:17:25;;;;;;;25.02;14.93;;;;;;;2.62;66.79;100955.34;4499225;31;35209;-73
2022/03/17 03:19:55;;;;;;;32.42;18.60;;;;;;;2.25;68.62;100959.34;4500298;31;34786;-73
2022/03/17 03:22:22;;;;;;;25.98;15.95;;;;;;;2.32;68.11;100953.31;4499114;31;33156;-70
2022/03/17 03:24:50;;;;;;;26.90;17.98;;;;;;;2.62;67.39;100958.03;4500439;31;33533;-73
2022/03/17 03:27:17;;;;;;;29.10;17.48;;;;;;;2.37;67.34;100948.28;4500396;31;34985;-71
2022/03/17 03:29:44;;;;;;;27.45;17.50;;;;;;;2.58;66.42;100953.19;4500247;31;34670;-69
2022/03/17 03:32:12;;;;;;;30.45;16.48;;;;;;;2.89;65.32;100939.91;4500517;31;33138;-70
2022/03/17 03:34:39;;;;;;;26.02;15.93;;;;;;;3.42;63.59;100949.19;4500355;31;34737;-72
2022/03/17 03:37:25;;;;;;;25.20;15.43;;;;;;;2.63;66.41;100951.66;4499818;31;33958;-69
2022/03/17 03:39:55;;;;;;;23.00;14.45;;;;;;;2.93;65.68;100951.16;4500271;31;33753;-71
2022/03/17 03:42:23;;;;;;;24.90;15.52;;;;;;;3.05;66.18;100958.69;4498852;31;34067;-70
2022/03/17 03:44:51;;;;;;;23.67;12.77;;;;;;;2.86;66.31;100957.19;4500235;31;34830;-69
2022/03/17 03:47:19;;;;;;;23.85;14.63;;;;;;;2.71;67.27;100958.87;4499844;31;34087;-70
2022/03/17 03:49:46;;;;;;;0.93;0.80;;;;;;;2.45;67.78;100959.84;4498706;31;33832;-70
2022/03/17 03:52:15;;;;;;;25.08;15.80;;;;;;;2.97;66.61;100961.34;4500312;31;33266;-71
2022/03/17 03:54:42;;;;;;;25.85;15.38;;;;;;;2.53;67.56;100964.41;4500221;31;33892;-71
2022/03/17 03:57:09;;;;;;;21.45;14.57;;;;;;;2.77;66.79;100962.72;4499966;31;34980;-72
2022/03/17 03:59:38;;;;;;;23.95;14.90;;;;;;;2.59;67.25;100973.59;4500188;31;34608;-69
2022/03/17 04:02:09;;;;;;;25.02;15.32;;;;;;;2.63;67.25;100958.84;4499936;31;34338;-73
2022/03/17 04:04:42;;;;;;;23.62;14.30;;;;;;;2.86;66.08;100959.03;4500076;31;33701;-71
2022/03/17 04:07:11;;;;;;;22.87;14.25;;;;;;;2.63;66.55;100956.19;4499882;31;34866;-71
2022/03/17 04:09:41;;;;;;;23.80;15.02;;;;;;;2.38;66.77;100948.13;4498726;31;33630;-71
2022/03/17 04:12:11;;;;;;;12.93;8.23;;;;;;;2.82;65.86;100950.47;4499537;31;34212;-70
2022/03/17 04:14:39;;;;;;;22.50;14.35;;;;;;;2.73;65.30;100945.31;4498421;31;33720;-70
2022/03/17 04:17:06;;;;;;;23.48;15.13;;;;;;;2.49;66.23;100940.78;4499823;31;34049;-71
2022/03/17 04:19:34;;;;;;;23.70;15.27;;;;;;;2.14;67.37;100935.56;4500035;31;33755;-73
2022/03/17 04:22:02;;;;;;;26.37;16.25;;;;;;;1.75;67.67;100935.25;4499652;31;33380;-69
2022/03/17 04:24:29;;;;;;;1.10;1.00;;;;;;;1.31;69.92;100933.56;4499749;31;33691;-71
2022/03/17 04:26:58;;;;;;;27.58;16.20;;;;;;;1.94;68.49;100937.66;4498518;31;34170;-70
2022/03/17 04:29:28;;;;;;;25.98;16.45;;;;;;;1.99;67.77;100943.38;4498301;31;34354;-69
2022/03/17 04:31:55;;;;;;;24.87;15.68;;;;;;;1.55;69.84;100954.25;4500005;31;33411;-69
2022/03/17 04:34:22;;;;;;;27.55;16.35;;;;;;;1.84;68.27;100959.22;4499712;31;34931;-75
2022/03/17 04:36:50;;;;;;;15.55;10.05;;;;;;;1.87;68.46;100970.59;4499629;31;34857;-69
2022/03/17 04:39:18;;;;;;;31.23;17.42;;;;;;;2.11;66.99;100981.38;4499185;31;34688;-70
2022/03/17 04:41:45;;;;;;;27.75;17.40;;;;;;;1.52;69.24;100991.19;4499288;31;33481;-70
2022/03/17 04:44:13;;;;;;;27.37;16.37;;;;;;;1.21;70.55;100989.00;4499683;31;33986;-71
2022/03/17 04:46:46;;;;;;;29.70;18.23;;;;;;;1.60;68.11;100991.25;4499340;31;33769;-68
2022/03/17 04:49:14;;;;;;;29.33;17.12;;;;;;;1.64;67.45;100979.19;4499371;31;33817;-67
2022/03/17 04:51:41;;;;;;;26.62;16.67;;;;;;;1.19;69.56;100991.00;4499413;31;33967;-69
2022/03/17 04:54:08;;;;;;;25.08;15.73;;;;;;;1.97;67.50;100985.53;4499252;31;35292;-68
2022/03/17 04:56:36;;;;;;;1.25;1.15;;;;;;;2.01;67.14;100986.88;4499510;31;34009;-72
2022/03/17 04:59:03;;;;;;;26.50;16.60;;;;;;;2.20;66.14;100988.44;4499394;31;34017;-74
2022/03/17 05:01:31;;;;;;;26.70;16.62;;;;;;;1.84;67.50;100998.53;4499160;31;33542;-71
2022/03/17 05:03:59;;;;;;;26.83;16.70;;;;;;;2.03;67.37;101000.09;4499217;31;34045;-70
2022/03/17 05:06:26;;;;;;;1.65;1.37;;;;;;;1.90;67.59;100997.91;4499639;31;33970;-73
2022/03/17 05:08:53;;;;;;;27.27;17.40;;;;;;;1.77;68.13;100998.34;4498947;31;33533;-74
2022/03/17 05:11:21;;;;;;;2.45;2.25;;;;;;;1.73;68.23;101006.81;4499251;31;33520;-74
2022/03/17 05:13:48;;;;;;;26.58;17.37;;;;;;;2.54;65.25;101006.25;4499031;31;33993;-71
2022/03/17 05:16:16;;;;;;;28.25;16.85;;;;;;;2.83;64.40;101012.97;4499105;31;35078;-74
2022/03/17 05:18:44;;;;;;;29.17;16.75;;;;;;;2.64;64.70;101019.50;4498848;31;34273;-70
2022/03/17 05:21:12;;;;;;;26.12;15.50;;;;;;;2.31;66.30;101035.50;4499379;31;33528;-74
2022/03/17 05:23:39;;;;;;;27.45;17.52;;;;;;;2.83;64.52;101047.81;4498822;31;33960;-73
2022/03/17 05:26:08;;;;;;;37.78;22.42;;;;;;;2.18;66.77;101045.81;4499073;31;34038;-72
2022/03/17 05:28:35;;;;;;;38.50;22.95;;;;;;;1.32;70.65;101058.25;4498710;31;35027;-73
2022/03/17 05:31:03;;;;;;;33.03;19.15;;;;;;;1.41;70.09;101056.47;4499155;31;34465;-70
2022/03/17 05:33:31;;;;;;;35.00;20.00;;;;;;;2.00;67.78;101048.59;4501932;31;33740;-76
2022/03/17 05:35:58;;;;;;;36.33;20.05;;;;;;;1.64;69.19;101057.63;4509843;31;34046;-79
2022/03/17 05:38:25;;;;;;;32.08;18.75;;;;;;;2.00;68.06;101062.00;4514144;31;34163;-75
2022/03/17 05:40:53;;;;;;;31.62;18.25;;;;;;;2.32;66.84;101057.75;4515576;31;33747;-68
2022/03/17 05:43:21;;;;;;;34.85;20.27;;;;;;;2.52;66.47;101075.22;4516545;31;34042;-77
2022/03/17 05:45:48;;;;;;;36.38;20.40;;;;;;;2.84;64.41;101070.94;4516852;31;35003;-72
2022/03/17 05:48:16;;;;;;;22.30;12.40;;;;;;;2.35;66.91;101086.88;4516397;31;33575;-78
2022/03/17 05:50:45;;;;;;;32.80;20.55;;;;;;;3.35;63.54;101098.44;4516248;31;33614;-79
2022/03/17 05:53:12;;;;;;;35.38;20.25;;;;;;;2.80;66.26;101094.53;4516392;31;33706;-67
2022/03/17 05:55:40;;;;;;;1.55;1.45;;;;;;;3.23;65.61;101097.09;4516364;31;33729;-66
2022/03/17 05:58:08;;;;;;;31.73;18.62;;;;;;;3.81;62.68;101097.87;4516349;31;34741;-65
2022/03/17 06:00:35;;;;;;;28.98;18.48;;;;;;;4.30;61.98;101097.72;4515827;31;33289;-67
2022/03/17 06:03:04;;;;;;;30.50;19.98;;;;;;;5.13;59.05;101105.13;4516615;31;33685;-75
2022/03/17 06:05:32;;;;;;;25.12;16.62;;;;;;;6.29;56.61;101096.78;4515712;31;35675;-66
2022/03/17 06:08:03;;;;;;;28.73;17.33;;;;;;;7.12;54.27;101114.31;4515384;31;33725;-64
2022/03/17 06:10:32;;;;;;;27.35;16.87;;;;;;;7.90;50.87;101111.63;4516615;31;33316;-65
2022/03/17 06:13:03;;;;;;;23.73;15.82;;;;;;;8.72;49.58;101120.00;4516253;31;34029;-65
2022/03/17 06:15:33;;;;;;;25.15;15.95;;;;;;;9.07;48.93;101118.03;4516471;31;33671;-65
2022/03/17 06:18:03;;;;;;;27.23;15.52;;;;;;;9.32;47.17;101112.00;4516682;31;34023;-65
2022/03/17 06:20:34;;;;;;;24.87;14.70;;;;;;;9.88;45.38;101118.87;4515888;31;33612;-65
2022/03/17 06:23:04;;;;;;;21.90;14.35;;;;;;;10.57;43.05;101110.16;4515833;31;34677;-65
2022/03/17 06:25:33;;;;;;;24.00;14.63;;;;;;;11.08;42.95;101117.44;4516155;31;34978;-66
2022/03/17 06:28:06;;;;;;;25.17;15.38;;;;;;;11.45;42.80;101133.06;4516644;31;33862;-65
2022/03/17 06:30:37;;;;;;;21.58;14.70;;;;;;;12.11;41.51;101135.19;4516491;31;33080;-65
2022/03/17 06:33:06;;;;;;;25.25;15.63;;;;;;;12.32;40.47;101144.00;4516408;31;33808;-65
2022/03/17 06:35:34;;;;;;;24.42;15.40;;;;;;;12.69;40.35;101152.16;4510757;31;34245;-65
2022/03/17 06:38:04;;;;;;;22.27;13.85;;;;;;;12.78;39.15;101137.16;4511718;31;34064;-63
2022/03/17 06:40:31;;;;;;;30.17;14.87;;;;;;;13.30;38.44;101133.94;4511882;31;33444;-65
2022/03/17 06:42:59;;;;;;;25.65;16.35;;;;;;;12.67;37.65;101138.75;4515445;31;34822;-70
2022/03/17 06:45:27;;;;;;;27.33;15.52;;;;;;;12.60;38.47;101134.47;4515659;31;33979;-70
2022/03/17 06:47:55;;;;;;;24.67;15.75;;;;;;;11.82;38.47;101134.00;4515270;31;34372;-67
2022/03/17 06:50:23;;;;;;;26.52;15.25;;;;;;;11.38;39.07;101129.53;4514198;31;34274;-70
2022/03/17 06:52:51;;;;;;;27.55;15.15;;;;;;;11.24;38.53;101139.69;4514594;31;34064;-64
2022/03/17 06:55:19;;;;;;;26.87;16.23;;;;;;;10.53;39.36;101137.94;4514885;31;34544;-63
2022/03/17 06:57:46;;;;;;;29.12;15.18;;;;;;;11.19;39.06;101137.63;4515408;31;33796;-64
2022/03/17 07:00:16;;;;;;;27.50;15.38;;;;;;;10.64;39.35;101142.69;4512355;31;33542;-70
2022/03/17 07:02:44;;;;;;;26.52;15.70;;;;;;;9.94;39.29;101147.88;4506477;31;34898;-75
2022/03/17 07:05:12;;;;;;;28.35;15.70;;;;;;;9.30;41.89;101154.72;4508162;31;34146;-73
2022/03/17 07:07:40;;;;;;;30.52;15.68;;;;;;;9.40;40.94;101153.28;4507488;31;35207;-79
2022/03/17 07:10:08;;;;;;;27.77;16.17;;;;;;;9.36;41.60;101146.59;4514371;31;34397;-80
2022/03/17 07:12:36;;;;;;;26.52;16.65;;;;;;;9.47;42.47;101147.88;4512104;31;34566;-70
2022/03/17 07:15:05;;;;;;;26.40;15.25;;;;;;;9.10;43.31;101141.16;4512068;31;33680;-70
2022/03/17 07:17:39;;;;;;;28.50;16.65;;;;;;;9.00;43.04;101144.22;4514034;31;33525;-67
2022/03/17 07:20:12;;;;;;;26.15;15.60;;;;;;;9.23;43.20;101147.41;4512472;31;33455;-65
2022/03/17 07:22:42;;;;;;;26.70;15.30;;;;;;;9.03;43.35;101143.84;4512996;31;33479;-64
2022/03/17 07:25:11;;;;;;;24.30;14.90;;;;;;;8.72;44.81;101141.66;4513191;31;34876;-75
2022/03/17 07:27:43;;;;;;;25.33;15.80;;;;;;;8.74;44.30;101153.09;4512652;31;34003;-65
2022/03/17 07:30:14;;;;;;;25.77;15.75;;;;;;;9.13;43.46;101143.44;4512129;31;33519;-69
2022/03/17 07:32:42;;;;;;;24.83;15.25;;;;;;;9.17;42.67;101152.81;4510730;31;36081;-69
2022/03/17 07:35:09;;;;;;;26.02;15.63;;;;;;;9.35;43.01;101149.50;4512299;31;34660;-66
2022/03/17 07:37:37;;;;;;;28.58;16.45;;;;;;;9.45;42.94;101147.22;4513065;31;33869;-65
2022/03/17 07:40:06;;;;;;;28.12;16.95;;;;;;;9.08;43.98;101151.34;4512896;31;33622;-65
2022/03/17 07:42:33;;;;;;;26.60;16.75;;;;;;;9.02;44.00;101148.41;4513558;31;34055;-66
2022/03/17 07:45:04;;;;;;;32.95;17.80;;;;;;;9.07;43.94;101149.66;4503842;31;34033;-78
2022/03/17 07:47:33;;;;;;;27.23;16.10;;;;;;;8.90;45.31;101151.91;4511496;31;32268;-75
2022/03/17 07:50:04;;;;;;;27.83;16.33;;;;;;;9.21;43.90;101148.66;4506523;31;34265;-74
2022/03/17 07:52:32;;;;;;;30.40;16.65;;;;;;;8.94;44.72;101150.47;4514137;31;34773;-76
2022/03/17 07:54:59;;;;;;;25.70;16.23;;;;;;;8.87;45.14;101152.31;4514928;31;34174;-76
2022/03/17 07:57:27;;;;;;;24.75;15.88;;;;;;;8.77;46.28;101152.72;4510885;31;33921;-66
2022/03/17 07:59:54;;;;;;;28.02;15.98;;;;;;;8.89;45.46;101159.19;4512396;31;33598;-70
2022/03/17 08:02:22;;;;;;;26.08;16.65;;;;;;;8.74;45.22;101159.34;4505220;31;33651;-69
2022/03/17 08:04:53;;;;;;;29.35;16.95;;;;;;;9.23;44.88;101162.84;4513793;31;34054;-65
2022/03/17 08:07:22;;;;;;;28.20;16.62;;;;;;;9.47;43.93;101164.12;4515302;31;33938;-70
2022/03/17 08:09:50;;;;;;;31.77;16.27;;;;;;;9.70;43.50;101162.87;4500722;31;33579;-68
2022/03/17 08:12:18;;;;;;;27.55;16.48;;;;;;;9.32;43.98;101161.59;4507854;31;34711;-75
2022/03/17 08:14:45;;;;;;;28.23;16.40;;;;;;;9.85;43.27;101164.34;4515186;31;34942;-73
2022/03/17 08:17:13;;;;;;;29.20;17.40;;;;;;;9.73;43.42;101163.28;4509081;31;33769;-81
2022/03/17 08:19:40;;;;;;;25.35;16.20;;;;;;;9.89;43.02;101178.28;4515056;31;33709;-67
2022/03/17 08:22:08;;;;;;;25.58;16.92;;;;;;;10.43;42.19;101179.09;4515049;31;33942;-66
2022/03/17 08:24:35;;;;;;;26.58;16.75;;;;;;;10.21;42.27;101170.34;4512822;31;34320;-64
2022/03/17 08:27:04;;;;;;;30.15;16.33;;;;;;;10.17;43.53;101171.81;4515006;31;33987;-66
2022/03/17 08:29:32;;;;;;;28.20;16.98;;;;;;;10.25;42.33;101175.13;4514751;31;34386;-70
2022/03/17 08:32:00;;;;;;;27.52;16.20;;;;;;;9.78;43.46;101155.41;4514459;31;34717;-71
2022/03/17 08:34:27;;;;;;;27.40;17.30;;;;;;;10.06;43.37;101174.12;4514875;31;34259;-66
2022/03/17 08:36:56;;;;;;;29.60;16.30;;;;;;;9.72;44.38;101187.88;4514482;31;34016;-64
2022/03/17 08:39:24;;;;;;;28.85;15.90;;;;;;;9.95;44.17;101174.75;4514353;31;33340;-64
2022/03/17 08:41:52;;;;;;;26.33;16.35;;;;;;;9.92;44.03;101196.03;4514551;31;34084;-65
2022/03/17 08:44:20;;;;;;;28.30;17.17;;;;;;;10.38;43.24;101195.19;4506852;31;34262;-66
2022/03/17 08:49:34;;;;;;;26.52;16.83;;;;;;;10.29;42.69;101194.56;4514987;31;34578;-69
2022/03/17 08:52:03;;;;;;;29.45;17.33;;;;;;;10.60;42.06;101190.31;4514208;31;34743;-69
2022/03/17 08:54:33;;;;;;;26.92;16.62;;;;;;;10.38;42.72;101193.28;4515209;31;34168;-70
2022/03/17 08:57:03;;;;;;;26.98;16.33;;;;;;;10.04;43.24;101197.91;4514413;31;33839;-70
2022/03/17 08:59:35;;;;;;;24.15;15.80;;;;;;;10.02;43.47;101200.00;4513809;31;33275;-69
2022/03/17 09:02:03;;;;;;;23.80;15.20;;;;;;;9.74;44.42;101205.63;4511142;31;34034;-73
2022/03/17 09:04:31;;;;;;;28.10;16.70;;;;;;;9.88;44.08;101206.47;4514737;31;34165;-64
2022/03/17 09:07:00;;;;;;;26.75;15.98;;;;;;;9.88;44.02;101214.59;4514628;31;33778;-65
2022/03/17 09:09:32;;;;;;;23.80;15.82;;;;;;;9.82;44.35;101204.56;4513824;31;34122;-75
2022/03/17 09:12:05;;;;;;;29.15;16.55;;;;;;;10.12;43.19;101215.00;4513748;31;34888;-66
2022/03/17 09:14:36;;;;;;;25.37;15.93;;;;;;;10.17;44.09;101204.34;4514518;31;34199;-70
2022/03/17 09:17:04;;;;;;;27.50;16.52;;;;;;;10.18;42.85;101208.75;4516554;31;33758;-64
2022/03/17 09:19:32;;;;;;;29.25;18.42;;;;;;;9.94;44.14;101216.47;4517215;31;34117;-64
2022/03/17 09:22:00;;;;;;;27.70;16.50;;;;;;;9.79;44.35;101215.84;4516876;31;34740;-65
2022/03/17 09:24:30;;;;;;;27.05;16.48;;;;;;;9.91;43.65;101210.63;4514861;31;33677;-65
2022/03/17 09:26:58;;;;;;;28.17;16.77;;;;;;;9.86;44.03;101208.53;4516025;31;34531;-65
2022/03/17 09:29:28;;;;;;;25.05;15.55;;;;;;;9.67;44.38;101212.06;4515738;31;31900;-70
2022/03/17 09:31:58;;;;;;;25.58;16.60;;;;;;;9.57;44.42;101202.47;4509128;31;33640;-70
2022/03/17 09:34:27;;;;;;;28.42;17.17;;;;;;;9.64;44.68;101213.31;4511241;31;34993;-71
2022/03/17 09:36:54;;;;;;;26.85;16.55;;;;;;;9.68;44.89;101211.88;4516787;31;34547;-69
2022/03/17 09:39:44;;;;;;;27.52;17.37;;;;;;;9.60;44.62;101220.19;4516512;31;33293;-71
2022/03/17 09:42:16;;;;;;;26.48;17.15;;;;;;;9.55;44.72;101211.88;4511178;31;34069;-70
2022/03/17 09:44:46;;;;;;;26.77;17.08;;;;;;;9.57;45.64;101212.50;4515828;31;34317;-68
2022/03/17 09:47:20;;;;;;;30.23;18.00;;;;;;;9.80;44.52;101212.09;4516853;31;33561;-69
2022/03/17 09:49:49;;;;;;;28.00;17.47;;;;;;;9.96;44.09;101217.09;4515725;31;33155;-69
2022/03/17 09:52:17;;;;;;;27.08;16.87;;;;;;;10.13;43.39;101219.38;4516508;31;33994;-70
2022/03/17 09:54:46;;;;;;;29.92;18.25;;;;;;;9.70;44.58;101208.94;4507580;31;34210;-71
2022/03/17 09:57:16;;;;;;;31.90;18.42;;;;;;;9.89;44.89;101215.41;4510334;31;33674;-73
2022/03/17 09:59:45;;;;;;;28.65;17.30;;;;;;;9.92;44.05;101220.44;4508951;31;33386;-67
2022/03/17 10:02:17;;;;;;;26.95;16.85;;;;;;;10.60;43.21;101215.56;4510075;31;33595;-64
2022/03/17 10:04:46;;;;;;;29.35;18.10;;;;;;;10.54;42.91;101202.00;4509628;31;35337;-62
2022/03/17 10:07:15;;;;;;;27.75;17.50;;;;;;;10.85;42.36;101196.69;4510676;31;34022;-63
2022/03/17 10:09:43;;;;;;;27.95;16.92;;;;;;;10.78;41.92;101209.47;4517106;31;33422;-71
2022/03/17 10:12:12;;;;;;;28.20;16.73;;;;;;;10.84;41.50;101207.78;4504492;31;34032;-72
2022/03/17 10:14:40;;;;;;;31.80;17.08;;;;;;;10.86;41.83;101205.69;4515912;31;34735;-62
2022/03/17 10:17:31;;;;;;;28.40;16.98;;;;;;;10.63;41.81;101198.88;4515619;31;34695;-64
2022/03/17 10:20:22;;;;;;;26.40;17.20;;;;;;;10.77;41.83;101191.50;4515935;31;34407;-65
2022/03/17 10:22:56;;;;;;;28.12;17.12;;;;;;;10.80;41.86;101193.81;4501671;31;33647;-68
2022/03/17 10:25:32;;;;;;;26.92;17.42;;;;;;;10.84;41.86;101205.91;4500671;31;33846;-64
2022/03/17 10:28:01;;;;;;;27.85;17.30;;;;;;;11.45;40.45;101209.97;4510595;31;34851;-67
2022/03/17 10:30:33;;;;;;;25.40;16.70;;;;;;;11.33;40.50;101208.19;4515371;31;34461;-64
2022/03/17 10:33:09;;;;;;;25.70;16.58;;;;;;;11.24;40.79;101205.72;4516471;31;33560;-64
2022/03/17 10:35:45;;;;;;;26.25;16.30;;;;;;;10.97;41.27;101206.87;4513485;31;35014;-64
2022/03/17 10:38:15;;;;;;;28.45;16.55;;;;;;;11.17;41.65;101199.50;4500054;31;34462;-64
2022/03/17 10:40:44;;;;;;;30.42;17.33;;;;;;;10.79;41.33;101205.69;4505460;31;33431;-67
2022/03/17 10:43:19;;;;;;;26.55;16.90;;;;;;;11.24;40.33;101203.00;4516949;31;33720;-64
2022/03/17 10:45:48;;;;;;;27.10;16.92;;;;;;;11.56;40.85;101205.72;4516970;31;34915;-64
2022/03/17 10:48:15;;;;;;;27.23;17.12;;;;;;;11.67;39.47;101212.34;4515889;31;33897;-66
2022/03/17 10:50:43;;;;;;;28.50;16.58;;;;;;;11.23;40.11;101211.34;4517133;31;34233;-63
2022/03/17 10:53:11;;;;;;;28.05;18.00;;;;;;;11.22;40.39;101210.53;4516234;31;34491;-64
2022/03/17 10:55:39;;;;;;;30.45;18.35;;;;;;;11.41;40.40;101214.19;4516048;31;33989;-66
2022/03/17 10:58:13;;;;;;;24.27;16.12;;;;;;;11.66;39.44;101210.66;4517109;31;34069;-68
2022/03/17 11:00:56;;;;;;;27.27;17.27;;;;;;;11.58;39.08;101209.06;4516304;31;33570;-64
2022/03/17 11:03:24;;;;;;;27.60;17.65;;;;;;;11.15;41.02;101217.06;4515001;31;33933;-66
2022/03/17 11:05:53;;;;;;;25.58;16.35;;;;;;;11.21;40.93;101214.31;4516697;31;33775;-64
2022/03/17 11:08:21;;;;;;;29.00;16.98;;;;;;;10.98;41.57;101219.44;4513949;31;34043;-62
2022/03/17 11:10:52;;;;;;;29.77;17.15;;;;;;;11.19;41.36;101219.13;4516536;31;34316;-67
2022/03/17 11:13:20;;;;;;;27.90;17.23;;;;;;;11.22;41.45;101220.56;4514845;31;34071;-75
2022/03/17 11:15:56;;;;;;;26.05;16.10;;;;;;;11.17;41.61;101220.41;4513133;31;35062;-67
2022/03/17 11:18:32;;;;;;;25.42;15.32;;;;;;;11.67;40.85;101223.22;4509706;31;33987;-68
2022/03/17 11:21:20;;;;;;;27.85;16.48;;;;;;;11.46;40.82;101224.41;4513312;31;34131;-70
2022/03/17 11:23:59;;;;;;;23.45;14.98;;;;;;;11.94;40.40;101229.31;4512516;31;34951;-63
2022/03/17 11:26:41;;;;;;;22.25;14.52;;;;;;;11.92;39.94;101228.69;4516988;31;34209;-68
2022/03/17 11:29:10;;;;;;;22.70;14.93;;;;;;;11.49;41.24;101232.97;4516687;31;33643;-70
2022/03/17 11:31:56;;;;;;;23.05;14.63;;;;;;;11.84;40.91;101228.97;4516943;31;33256;-66
2022/03/17 11:34:37;;;;;;;24.85;15.00;;;;;;;11.99;40.84;101220.50;4509196;31;33892;-70
2022/03/17 11:37:16;;;;;;;26.60;15.70;;;;;;;12.23;38.94;101227.81;4503660;31;34931;-68
2022/03/17 11:40:04;;;;;;;26.45;16.25;;;;;;;12.08;39.79;101219.16;4516290;31;34723;-71